sensor_id;sensor_type;location;lat;lon;timestamp;pressure;altitude;pressure_sealevel;temperature;humidity
59272;BME280;45043;51.068;7.026;2023-04-25T00:01:48;99854.22;;;3.11;59.07
59272;BME280;45043;51.068;7.026;2023-04-25T00:04:48;99847.81;;;3.06;58.75
59272;BME280;45043;51.068;7.026;2023-04-25T00:07:49;99852.06;;;2.98;59.29
59272;BME280;45043;51.068;7.026;2023-04-25T00:10:50;99844.53;;;2.95;59.32
59272;BME280;45043;51.068;7.026;2023-04-25T00:13:50;99842.06;;;2.94;59.25
59272;BME280;45043;51.068;7.026;2023-04-25T00:16:51;99836.97;;;2.92;59.54
59272;BME280;45043;51.068;7.026;2023-04-25T00:19:51;99844.84;;;2.92;59.80
59272;BME280;45043;51.068;7.026;2023-04-25T00:22:52;99840.59;;;2.91;59.71
59272;BME280;45043;51.068;7.026;2023-04-25T00:25:53;99839.28;;;2.87;59.87
59272;BME280;45043;51.068;7.026;2023-04-25T00:28:53;99841.91;;;2.87;59.49
59272;BME280;45043;51.068;7.026;2023-04-25T00:31:54;99835.84;;;2.87;59.83
59272;BME280;45043;51.068;7.026;2023-04-25T00:34:54;99839.41;;;2.86;59.83
59272;BME280;45043;51.068;7.026;2023-04-25T00:37:56;99854.69;;;2.90;60.06
59272;BME280;45043;51.068;7.026;2023-04-25T00:40:57;99848.13;;;2.86;60.25
59272;BME280;45043;51.068;7.026;2023-04-25T00:43:59;99849.91;;;2.86;60.14
59272;BME280;45043;51.068;7.026;2023-04-25T00:47:01;99853.03;;;2.89;60.33
59272;BME280;45043;51.068;7.026;2023-04-25T00:50:02;99842.53;;;2.89;60.18
59272;BME280;45043;51.068;7.026;2023-04-25T00:53:03;99841.56;;;2.90;60.22
59272;BME280;45043;51.068;7.026;2023-04-25T00:56:04;99840.59;;;2.91;60.07
59272;BME280;45043;51.068;7.026;2023-04-25T00:59:04;99846.16;;;2.88;60.56
59272;BME280;45043;51.068;7.026;2023-04-25T01:02:05;99844.19;;;2.90;60.21
59272;BME280;45043;51.068;7.026;2023-04-25T01:05:05;99843.22;;;2.91;60.58
59272;BME280;45043;51.068;7.026;2023-04-25T01:08:06;99848.44;;;2.91;59.99
59272;BME280;45043;51.068;7.026;2023-04-25T01:11:07;99847.47;;;2.84;60.50
59272;BME280;45043;51.068;7.026;2023-04-25T01:14:07;99853.84;;;2.82;60.25
59272;BME280;45043;51.068;7.026;2023-04-25T01:17:09;99849.41;;;2.82;60.53
59272;BME280;45043;51.068;7.026;2023-04-25T01:20:11;99854.00;;;2.72;60.62
59272;BME280;45043;51.068;7.026;2023-04-25T01:23:12;99844.63;;;2.69;61.06
59272;BME280;45043;51.068;7.026;2023-04-25T01:26:14;99844.13;;;2.66;61.29
59272;BME280;45043;51.068;7.026;2023-04-25T01:29:20;99853.31;;;2.62;60.92
59272;BME280;45043;51.068;7.026;2023-04-25T01:32:22;99852.19;;;2.64;61.34
59272;BME280;45043;51.068;7.026;2023-04-25T01:35:23;99856.56;;;2.64;61.24
59272;BME280;45043;51.068;7.026;2023-04-25T01:38:27;99850.50;;;2.63;61.24
59272;BME280;45043;51.068;7.026;2023-04-25T01:41:28;99855.63;;;2.65;61.34
59272;BME280;45043;51.068;7.026;2023-04-25T01:44:29;99862.66;;;2.64;61.58
59272;BME280;45043;51.068;7.026;2023-04-25T01:47:30;99867.06;;;2.64;61.81
59272;BME280;45043;51.068;7.026;2023-04-25T01:50:30;99863.50;;;2.65;61.62
59272;BME280;45043;51.068;7.026;2023-04-25T01:53:31;99865.44;;;2.63;61.46
59272;BME280;45043;51.068;7.026;2023-04-25T01:56:32;99866.25;;;2.63;61.73
59272;BME280;45043;51.068;7.026;2023-04-25T01:59:34;99864.44;;;2.64;61.86
59272;BME280;45043;51.068;7.026;2023-04-25T02:02:53;99876.91;;;2.62;61.96
59272;BME280;45043;51.068;7.026;2023-04-25T02:05:59;99866.41;;;2.62;62.46
59272;BME280;45043;51.068;7.026;2023-04-25T02:09:01;99865.44;;;2.63;62.01
59272;BME280;45043;51.068;7.026;2023-04-25T02:12:01;99877.22;;;2.59;62.52
59272;BME280;45043;51.068;7.026;2023-04-25T02:15:15;99875.41;;;2.59;62.21
59272;BME280;45043;51.068;7.026;2023-04-25T02:18:25;99874.59;;;2.59;62.11
59272;BME280;45043;51.068;7.026;2023-04-25T02:21:26;99873.63;;;2.60;62.56
59272;BME280;45043;51.068;7.026;2023-04-25T02:24:27;99868.72;;;2.57;62.71
59272;BME280;45043;51.068;7.026;2023-04-25T02:27:30;99871.97;;;2.59;62.61
59272;BME280;45043;51.068;7.026;2023-04-25T02:30:31;99882.13;;;2.54;62.91
59272;BME280;45043;51.068;7.026;2023-04-25T02:33:31;99867.03;;;2.47;62.74
59272;BME280;45043;51.068;7.026;2023-04-25T02:36:31;99876.88;;;2.45;62.66
59272;BME280;45043;51.068;7.026;2023-04-25T02:39:34;99883.06;;;2.44;63.23
59272;BME280;45043;51.068;7.026;2023-04-25T02:42:35;99875.19;;;2.44;63.00
59272;BME280;45043;51.068;7.026;2023-04-25T02:45:35;99867.03;;;2.47;63.10
59272;BME280;45043;51.068;7.026;2023-04-25T02:48:36;99867.19;;;2.46;63.48
59272;BME280;45043;51.068;7.026;2023-04-25T02:51:36;99872.78;;;2.51;62.97
59272;BME280;45043;51.068;7.026;2023-04-25T02:54:38;99876.88;;;2.54;63.20
59272;BME280;45043;51.068;7.026;2023-04-25T02:57:38;99873.28;;;2.55;63.12
59272;BME280;45043;51.068;7.026;2023-04-25T03:00:43;99880.16;;;2.56;63.46
59272;BME280;45043;51.068;7.026;2023-04-25T03:03:44;99863.09;;;2.51;63.44
59272;BME280;45043;51.068;7.026;2023-04-25T03:06:45;99867.69;;;2.49;63.59
59272;BME280;45043;51.068;7.026;2023-04-25T03:09:45;99858.53;;;2.54;63.43
59272;BME280;45043;51.068;7.026;2023-04-25T03:12:46;99864.13;;;2.59;63.28
59272;BME280;45043;51.068;7.026;2023-04-25T03:15:47;99865.75;;;2.60;63.32
59272;BME280;45043;51.068;7.026;2023-04-25T03:18:47;99857.25;;;2.66;63.31
59272;BME280;45043;51.068;7.026;2023-04-25T03:21:48;99863.50;;;2.65;63.39
59272;BME280;45043;51.068;7.026;2023-04-25T03:24:49;99863.16;;;2.68;63.30
59272;BME280;45043;51.068;7.026;2023-04-25T03:27:50;99864.63;;;2.70;63.35
59272;BME280;45043;51.068;7.026;2023-04-25T03:30:50;99864.19;;;2.75;62.97
59272;BME280;45043;51.068;7.026;2023-04-25T03:33:51;99867.94;;;2.72;63.10
59272;BME280;45043;51.068;7.026;2023-04-25T03:36:54;99863.81;;;2.70;63.46
59272;BME280;45043;51.068;7.026;2023-04-25T03:39:54;99865.78;;;2.68;63.45
59272;BME280;45043;51.068;7.026;2023-04-25T03:42:57;99872.00;;;2.67;63.11
59272;BME280;45043;51.068;7.026;2023-04-25T03:45:57;99878.72;;;2.61;63.47
59272;BME280;45043;51.068;7.026;2023-04-25T03:48:59;99879.03;;;2.58;63.51
59272;BME280;45043;51.068;7.026;2023-04-25T03:52:10;99880.84;;;2.58;63.70
59272;BME280;45043;51.068;7.026;2023-04-25T03:55:13;99877.22;;;2.59;63.65
59272;BME280;45043;51.068;7.026;2023-04-25T03:58:13;99877.91;;;2.61;63.56
59272;BME280;45043;51.068;7.026;2023-04-25T04:01:14;99878.53;;;2.63;63.60
59272;BME280;45043;51.068;7.026;2023-04-25T04:04:15;99887.91;;;2.65;63.39
59272;BME280;45043;51.068;7.026;2023-04-25T04:07:16;99889.72;;;2.65;63.27
59272;BME280;45043;51.068;7.026;2023-04-25T04:10:22;99888.91;;;2.64;63.80
59272;BME280;45043;51.068;7.026;2023-04-25T04:13:22;99894.97;;;2.65;63.83
59272;BME280;45043;51.068;7.026;2023-04-25T04:16:23;99894.97;;;2.65;63.97
59272;BME280;45043;51.068;7.026;2023-04-25T04:19:23;99891.00;;;2.61;63.65
59272;BME280;45043;51.068;7.026;2023-04-25T04:22:33;99899.19;;;2.58;64.20
59272;BME280;45043;51.068;7.026;2023-04-25T04:25:40;99893.94;;;2.58;63.82
59272;BME280;45043;51.068;7.026;2023-04-25T04:29:06;99895.88;;;2.56;64.48
59272;BME280;45043;51.068;7.026;2023-04-25T04:32:23;99888.03;;;2.56;64.06
59272;BME280;45043;51.068;7.026;2023-04-25T04:35:26;99893.94;;;2.58;64.80
59272;BME280;45043;51.068;7.026;2023-04-25T04:38:27;99895.28;;;2.62;64.70
59272;BME280;45043;51.068;7.026;2023-04-25T04:41:32;99905.16;;;2.84;65.15
59272;BME280;45043;51.068;7.026;2023-04-25T04:44:58;99909.81;;;3.23;64.66
59272;BME280;45043;51.068;7.026;2023-04-25T04:48:22;99916.44;;;3.52;64.54
59272;BME280;45043;51.068;7.026;2023-04-25T04:51:34;99913.75;;;4.01;63.48
59272;BME280;45043;51.068;7.026;2023-04-25T04:54:42;99916.72;;;4.06;62.70
59272;BME280;45043;51.068;7.026;2023-04-25T04:58:07;99921.66;;;4.09;62.27
59272;BME280;45043;51.068;7.026;2023-04-25T05:01:18;99928.22;;;4.13;61.87
59272;BME280;45043;51.068;7.026;2023-04-25T05:04:47;99939.03;;;4.18;61.80
59272;BME280;45043;51.068;7.026;2023-04-25T05:08:10;99939.06;;;4.10;61.39
59272;BME280;45043;51.068;7.026;2023-04-25T05:11:36;99943.19;;;3.96;61.87
59272;BME280;45043;51.068;7.026;2023-04-25T05:14:56;99962.53;;;4.11;62.03
59272;BME280;45043;51.068;7.026;2023-04-25T05:18:27;99954.31;;;4.31;61.49
59272;BME280;45043;51.068;7.026;2023-04-25T05:21:38;99955.75;;;4.33;61.41
59272;BME280;45043;51.068;7.026;2023-04-25T05:24:39;99967.72;;;4.44;61.02
59272;BME280;45043;51.068;7.026;2023-04-25T05:27:56;99964.22;;;4.68;60.80
59272;BME280;45043;51.068;7.026;2023-04-25T05:31:18;99968.25;;;4.87;60.16
59272;BME280;45043;51.068;7.026;2023-04-25T05:34:27;99969.31;;;5.01;59.65
59272;BME280;45043;51.068;7.026;2023-04-25T05:37:36;99970.88;;;5.18;59.59
59272;BME280;45043;51.068;7.026;2023-04-25T05:40:44;99978.25;;;5.23;59.03
59272;BME280;45043;51.068;7.026;2023-04-25T05:43:50;99976.78;;;5.28;58.25
59272;BME280;45043;51.068;7.026;2023-04-25T05:47:08;99975.25;;;5.34;58.15
59272;BME280;45043;51.068;7.026;2023-04-25T05:50:41;99993.72;;;5.57;57.48
59272;BME280;45043;51.068;7.026;2023-04-25T05:53:54;100001.31;;;5.52;57.37
59272;BME280;45043;51.068;7.026;2023-04-25T05:56:56;100000.69;;;5.50;56.52
59272;BME280;45043;51.068;7.026;2023-04-25T05:59:57;99992.59;;;5.28;56.64
59272;BME280;45043;51.068;7.026;2023-04-25T06:03:13;99997.22;;;5.18;56.35
59272;BME280;45043;51.068;7.026;2023-04-25T06:06:18;99999.50;;;5.21;56.41
59272;BME280;45043;51.068;7.026;2023-04-25T06:09:20;100020.94;;;5.10;55.93
59272;BME280;45043;51.068;7.026;2023-04-25T06:12:21;100004.41;;;4.93;56.21
59272;BME280;45043;51.068;7.026;2023-04-25T06:15:23;100024.00;;;4.90;56.08
59272;BME280;45043;51.068;7.026;2023-04-25T06:18:24;100019.34;;;5.01;56.13
59272;BME280;45043;51.068;7.026;2023-04-25T06:21:24;100013.09;;;5.02;55.64
59272;BME280;45043;51.068;7.026;2023-04-25T06:24:26;100010.41;;;5.10;55.66
59272;BME280;45043;51.068;7.026;2023-04-25T06:27:27;100001.50;;;5.27;55.50
59272;BME280;45043;51.068;7.026;2023-04-25T06:30:28;100013.34;;;5.54;54.69
59272;BME280;45043;51.068;7.026;2023-04-25T06:33:35;100012.59;;;5.37;54.19
59272;BME280;45043;51.068;7.026;2023-04-25T06:36:37;100010.97;;;5.36;55.21
59272;BME280;45043;51.068;7.026;2023-04-25T06:39:41;100017.88;;;5.60;54.58
59272;BME280;45043;51.068;7.026;2023-04-25T06:42:42;100010.63;;;5.62;53.86
59272;BME280;45043;51.068;7.026;2023-04-25T06:46:01;100014.50;;;5.52;53.91
59272;BME280;45043;51.068;7.026;2023-04-25T06:49:03;100019.94;;;5.50;53.92
59272;BME280;45043;51.068;7.026;2023-04-25T06:52:04;100014.75;;;5.34;54.20
59272;BME280;45043;51.068;7.026;2023-04-25T06:55:05;100019.81;;;5.44;53.85
59272;BME280;45043;51.068;7.026;2023-04-25T06:58:25;100025.88;;;5.13;53.71
59272;BME280;45043;51.068;7.026;2023-04-25T07:01:29;100033.06;;;4.88;54.07
59272;BME280;45043;51.068;7.026;2023-04-25T07:04:31;100040.53;;;4.60;54.86
59272;BME280;45043;51.068;7.026;2023-04-25T07:07:33;100036.28;;;4.51;54.75
59272;BME280;45043;51.068;7.026;2023-04-25T07:10:33;100039.91;;;4.41;55.42
59272;BME280;45043;51.068;7.026;2023-04-25T07:13:34;100054.84;;;4.49;55.17
59272;BME280;45043;51.068;7.026;2023-04-25T07:16:34;100052.22;;;4.49;55.21
59272;BME280;45043;51.068;7.026;2023-04-25T07:19:36;100048.75;;;4.49;54.83
59272;BME280;45043;51.068;7.026;2023-04-25T07:22:38;100051.44;;;4.32;54.78
59272;BME280;45043;51.068;7.026;2023-04-25T07:25:39;100061.28;;;4.14;54.91
59272;BME280;45043;51.068;7.026;2023-04-25T07:28:41;100080.03;;;4.03;54.89
59272;BME280;45043;51.068;7.026;2023-04-25T07:31:42;100058.66;;;4.06;54.54
59272;BME280;45043;51.068;7.026;2023-04-25T07:34:42;100084.47;;;4.02;54.90
59272;BME280;45043;51.068;7.026;2023-04-25T07:37:43;100065.88;;;4.12;53.52
59272;BME280;45043;51.068;7.026;2023-04-25T07:40:52;100059.78;;;4.44;52.87
59272;BME280;45043;51.068;7.026;2023-04-25T07:43:53;100080.47;;;4.63;52.01
59272;BME280;45043;51.068;7.026;2023-04-25T07:46:54;100064.69;;;4.72;51.52
59272;BME280;45043;51.068;7.026;2023-04-25T07:49:55;100069.59;;;4.75;50.68
59272;BME280;45043;51.068;7.026;2023-04-25T07:52:58;100092.78;;;4.71;50.80
59272;BME280;45043;51.068;7.026;2023-04-25T07:56:07;100069.91;;;4.88;50.39
59272;BME280;45043;51.068;7.026;2023-04-25T07:59:11;100062.78;;;4.97;49.75
59272;BME280;45043;51.068;7.026;2023-04-25T08:02:12;100087.81;;;4.92;50.02
59272;BME280;45043;51.068;7.026;2023-04-25T08:05:13;100086.16;;;5.00;49.64
59272;BME280;45043;51.068;7.026;2023-04-25T08:08:18;100086.50;;;4.88;49.53
59272;BME280;45043;51.068;7.026;2023-04-25T08:11:19;100103.28;;;4.87;50.16
59272;BME280;45043;51.068;7.026;2023-04-25T08:14:20;100098.53;;;4.83;50.09
59272;BME280;45043;51.068;7.026;2023-04-25T08:17:22;100118.25;;;4.79;49.99
59272;BME280;45043;51.068;7.026;2023-04-25T08:20:23;100118.78;;;4.74;49.85
59272;BME280;45043;51.068;7.026;2023-04-25T08:23:26;100119.59;;;4.75;50.44
59272;BME280;45043;51.068;7.026;2023-04-25T09:21:23;100195.50;;;5.82;45.48
59272;BME280;45043;51.068;7.026;2023-04-25T09:24:38;100200.06;;;5.49;45.87
59272;BME280;45043;51.068;7.026;2023-04-25T09:27:50;100203.06;;;5.38;46.04
59272;BME280;45043;51.068;7.026;2023-04-25T09:30:56;100203.06;;;5.46;46.04
59272;BME280;45043;51.068;7.026;2023-04-25T09:34:06;100188.00;;;5.63;46.00
59272;BME280;45043;51.068;7.026;2023-04-25T09:37:20;100188.88;;;5.95;45.03
59272;BME280;45043;51.068;7.026;2023-04-25T09:40:44;100202.94;;;6.10;44.08
59272;BME280;45043;51.068;7.026;2023-04-25T09:43:57;100198.69;;;6.01;43.75
59272;BME280;45043;51.068;7.026;2023-04-25T09:47:00;100209.16;;;5.86;43.08
59272;BME280;45043;51.068;7.026;2023-04-25T09:50:14;100195.50;;;5.82;42.42
59272;BME280;45043;51.068;7.026;2023-04-25T09:53:17;100203.09;;;6.08;42.07
59272;BME280;45043;51.068;7.026;2023-04-25T09:56:37;100224.34;;;6.15;41.08
59272;BME280;45043;51.068;7.026;2023-04-25T09:59:48;100224.97;;;5.94;40.81
59272;BME280;45043;51.068;7.026;2023-04-25T10:02:51;100213.75;;;5.92;41.21
59272;BME280;45043;51.068;7.026;2023-04-25T10:06:19;100232.97;;;6.01;40.76
59272;BME280;45043;51.068;7.026;2023-04-25T10:09:25;100221.75;;;6.07;40.77
59272;BME280;45043;51.068;7.026;2023-04-25T10:12:28;100233.78;;;6.09;40.88
59272;BME280;45043;51.068;7.026;2023-04-25T10:15:29;100238.09;;;6.02;40.69
59272;BME280;45043;51.068;7.026;2023-04-25T10:18:32;100212.88;;;6.00;41.11
59272;BME280;45043;51.068;7.026;2023-04-25T10:21:33;100228.25;;;6.19;41.40
59272;BME280;45043;51.068;7.026;2023-04-25T10:24:36;100230.94;;;6.11;42.30
59272;BME280;45043;51.068;7.026;2023-04-25T10:27:39;100212.25;;;5.98;42.72
59272;BME280;45043;51.068;7.026;2023-04-25T10:31:03;100229.94;;;5.81;42.54
59272;BME280;45043;51.068;7.026;2023-04-25T10:34:04;100255.16;;;5.75;42.88
59272;BME280;45043;51.068;7.026;2023-04-25T10:37:08;100253.75;;;5.64;42.53
59272;BME280;45043;51.068;7.026;2023-04-25T10:40:10;100262.31;;;5.58;41.95
59272;BME280;45043;51.068;7.026;2023-04-25T10:46:39;100244.72;;;5.51;42.21
59272;BME280;45043;51.068;7.026;2023-04-25T10:49:41;100255.75;;;5.54;41.69
59272;BME280;45043;51.068;7.026;2023-04-25T10:52:45;100272.50;;;5.70;41.29
59272;BME280;45043;51.068;7.026;2023-04-25T10:55:49;100263.41;;;5.80;41.01
59272;BME280;45043;51.068;7.026;2023-04-25T10:58:50;100254.44;;;5.89;40.88
59272;BME280;45043;51.068;7.026;2023-04-25T11:01:53;100251.44;;;6.01;39.81
59272;BME280;45043;51.068;7.026;2023-04-25T11:04:54;100240.00;;;6.17;39.49
59272;BME280;45043;51.068;7.026;2023-04-25T11:07:56;100249.97;;;6.29;39.10
59272;BME280;45043;51.068;7.026;2023-04-25T11:11:02;100263.03;;;6.23;38.96
59272;BME280;45043;51.068;7.026;2023-04-25T11:14:03;100270.84;;;6.16;39.31
59272;BME280;45043;51.068;7.026;2023-04-25T11:17:04;100279.38;;;6.18;39.71
59272;BME280;45043;51.068;7.026;2023-04-25T11:20:07;100257.13;;;6.21;39.85
59272;BME280;45043;51.068;7.026;2023-04-25T11:23:11;100251.28;;;6.33;39.38
59272;BME280;45043;51.068;7.026;2023-04-25T11:26:15;100251.66;;;6.53;38.66
59272;BME280;45043;51.068;7.026;2023-04-25T11:29:16;100243.69;;;6.84;37.88
59272;BME280;45043;51.068;7.026;2023-04-25T11:32:17;100270.41;;;6.81;35.44
59272;BME280;45043;51.068;7.026;2023-04-25T11:35:19;100273.06;;;6.58;35.68
59272;BME280;45043;51.068;7.026;2023-04-25T11:38:20;100248.34;;;6.51;35.24
59272;BME280;45043;51.068;7.026;2023-04-25T11:41:21;100257.44;;;6.49;34.87
59272;BME280;45043;51.068;7.026;2023-04-25T11:44:22;100252.97;;;6.49;34.56
59272;BME280;45043;51.068;7.026;2023-04-25T11:47:29;100240.84;;;6.63;34.87
59272;BME280;45043;51.068;7.026;2023-04-25T11:50:30;100279.56;;;6.71;34.25
59272;BME280;45043;51.068;7.026;2023-04-25T11:53:30;100259.84;;;6.81;33.67
59272;BME280;45043;51.068;7.026;2023-04-25T11:56:31;100262.22;;;6.99;33.73
59272;BME280;45043;51.068;7.026;2023-04-25T11:59:33;100256.88;;;7.22;33.41
59272;BME280;45043;51.068;7.026;2023-04-25T12:02:35;100238.22;;;7.24;33.33
59272;BME280;45043;51.068;7.026;2023-04-25T12:05:36;100264.69;;;7.53;33.23
59272;BME280;45043;51.068;7.026;2023-04-25T12:08:59;100256.94;;;7.52;32.88
59272;BME280;45043;51.068;7.026;2023-04-25T12:12:00;100266.44;;;7.61;33.50
59272;BME280;45043;51.068;7.026;2023-04-25T12:15:16;100267.75;;;7.87;33.51
59272;BME280;45043;51.068;7.026;2023-04-25T12:18:26;100248.59;;;8.14;33.42
59272;BME280;45043;51.068;7.026;2023-04-25T12:21:29;100300.94;;;8.19;33.67
59272;BME280;45043;51.068;7.026;2023-04-25T12:24:33;100301.50;;;8.14;33.24
59272;BME280;45043;51.068;7.026;2023-04-25T12:27:35;100280.34;;;8.14;32.88
59272;BME280;45043;51.068;7.026;2023-04-25T12:31:01;100269.69;;;7.93;33.19
59272;BME280;45043;51.068;7.026;2023-04-25T12:34:03;100292.03;;;7.75;32.51
59272;BME280;45043;51.068;7.026;2023-04-25T12:37:03;100283.72;;;7.78;33.25
59272;BME280;45043;51.068;7.026;2023-04-25T12:40:05;100306.44;;;7.73;32.58
59272;BME280;45043;51.068;7.026;2023-04-25T12:43:06;100317.56;;;7.53;33.24
59272;BME280;45043;51.068;7.026;2023-04-25T12:46:07;100339.66;;;7.38;34.29
59272;BME280;45043;51.068;7.026;2023-04-25T12:49:08;100297.75;;;7.11;35.44
59272;BME280;45043;51.068;7.026;2023-04-25T12:52:09;100320.94;;;6.86;36.40
59272;BME280;45043;51.068;7.026;2023-04-25T12:55:10;100311.72;;;6.74;36.72
59272;BME280;45043;51.068;7.026;2023-04-25T12:58:10;100335.19;;;6.69;36.45
59272;BME280;45043;51.068;7.026;2023-04-25T13:01:10;100321.78;;;6.48;36.75
59272;BME280;45043;51.068;7.026;2023-04-25T13:04:13;100322.97;;;6.37;37.15
59272;BME280;45043;51.068;7.026;2023-04-25T13:07:13;100320.47;;;6.44;38.60
59272;BME280;45043;51.068;7.026;2023-04-25T13:10:14;100298.22;;;6.69;39.59
59272;BME280;45043;51.068;7.026;2023-04-25T13:13:14;100325.88;;;6.81;40.45
59272;BME280;45043;51.068;7.026;2023-04-25T13:16:17;100321.38;;;7.13;40.90
59272;BME280;45043;51.068;7.026;2023-04-25T13:19:17;100314.63;;;7.48;41.02
59272;BME280;45043;51.068;7.026;2023-04-25T13:22:18;100329.25;;;7.89;40.91
59272;BME280;45043;51.068;7.026;2023-04-25T13:25:20;100323.34;;;8.52;40.88
59272;BME280;45043;51.068;7.026;2023-04-25T13:28:22;100332.91;;;9.11;39.92
59272;BME280;45043;51.068;7.026;2023-04-25T13:31:23;100326.25;;;9.65;39.70
59272;BME280;45043;51.068;7.026;2023-04-25T13:34:24;100317.34;;;10.14;39.13
59272;BME280;45043;51.068;7.026;2023-04-25T13:37:25;100317.63;;;10.45;38.90
59272;BME280;45043;51.068;7.026;2023-04-25T13:40:25;100314.09;;;10.86;38.43
59272;BME280;45043;51.068;7.026;2023-04-25T13:43:27;100314.13;;;11.19;37.63
59272;BME280;45043;51.068;7.026;2023-04-25T13:46:28;100310.03;;;11.24;37.06
59272;BME280;45043;51.068;7.026;2023-04-25T13:49:28;100315.16;;;11.18;36.28
59272;BME280;45043;51.068;7.026;2023-04-25T13:52:29;100323.09;;;11.05;35.99
59272;BME280;45043;51.068;7.026;2023-04-25T13:55:29;100311.19;;;10.68;35.32
59272;BME280;45043;51.068;7.026;2023-04-25T13:58:30;100318.53;;;10.11;36.54
59272;BME280;45043;51.068;7.026;2023-04-25T14:01:30;100337.00;;;9.35;35.99
59272;BME280;45043;51.068;7.026;2023-04-25T14:04:34;100325.59;;;8.70;36.95
59272;BME280;45043;51.068;7.026;2023-04-25T14:07:35;100327.78;;;8.30;37.53
59272;BME280;45043;51.068;7.026;2023-04-25T14:10:36;100318.66;;;8.03;36.68
59272;BME280;45043;51.068;7.026;2023-04-25T14:13:38;100354.16;;;7.79;37.07
59272;BME280;45043;51.068;7.026;2023-04-25T14:16:38;100339.72;;;7.67;37.66
59272;BME280;45043;51.068;7.026;2023-04-25T14:19:39;100329.03;;;7.75;37.67
59272;BME280;45043;51.068;7.026;2023-04-25T14:22:43;100339.56;;;8.13;37.71
59272;BME280;45043;51.068;7.026;2023-04-25T14:25:43;100362.72;;;8.41;34.60
59272;BME280;45043;51.068;7.026;2023-04-25T14:28:44;100373.00;;;8.65;33.67
59272;BME280;45043;51.068;7.026;2023-04-25T14:31:44;100357.63;;;8.97;32.89
59272;BME280;45043;51.068;7.026;2023-04-25T14:34:48;100329.88;;;9.36;33.16
59272;BME280;45043;51.068;7.026;2023-04-25T14:37:48;100354.72;;;9.35;33.22
59272;BME280;45043;51.068;7.026;2023-04-25T14:40:49;100371.72;;;8.97;33.11
59272;BME280;45043;51.068;7.026;2023-04-25T14:43:50;100343.88;;;8.65;33.56
59272;BME280;45043;51.068;7.026;2023-04-25T14:46:51;100358.06;;;8.58;33.46
59272;BME280;45043;51.068;7.026;2023-04-25T14:49:52;100340.41;;;8.65;35.28
59272;BME280;45043;51.068;7.026;2023-04-25T14:52:54;100348.81;;;8.90;36.29
59272;BME280;45043;51.068;7.026;2023-04-25T14:55:58;100329.47;;;9.60;36.57
59272;BME280;45043;51.068;7.026;2023-04-25T14:58:59;100338.06;;;10.45;34.53
59272;BME280;45043;51.068;7.026;2023-04-25T15:02:00;100327.56;;;10.71;34.38
59272;BME280;45043;51.068;7.026;2023-04-25T15:05:00;100334.75;;;10.97;34.50
59272;BME280;45043;51.068;7.026;2023-04-25T15:08:02;100334.34;;;11.54;34.28
59272;BME280;45043;51.068;7.026;2023-04-25T15:11:05;100331.69;;;11.67;34.37
59272;BME280;45043;51.068;7.026;2023-04-25T15:14:06;100341.34;;;11.61;33.92
59272;BME280;45043;51.068;7.026;2023-04-25T15:17:06;100331.72;;;11.20;34.10
59272;BME280;45043;51.068;7.026;2023-04-25T15:20:12;100346.38;;;10.83;34.39
59272;BME280;45043;51.068;7.026;2023-04-25T15:23:13;100346.84;;;10.45;35.12
59272;BME280;45043;51.068;7.026;2023-04-25T15:26:14;100347.63;;;10.33;35.66
59272;BME280;45043;51.068;7.026;2023-04-25T15:29:14;100348.84;;;10.30;35.33
59272;BME280;45043;51.068;7.026;2023-04-25T15:32:15;100353.69;;;10.13;35.54
59272;BME280;45043;51.068;7.026;2023-04-25T15:35:16;100352.22;;;9.76;36.36
59272;BME280;45043;51.068;7.026;2023-04-25T15:38:16;100350.00;;;9.51;36.72
59272;BME280;45043;51.068;7.026;2023-04-25T15:41:17;100355.75;;;9.12;36.78
59272;BME280;45043;51.068;7.026;2023-04-25T15:44:17;100352.22;;;8.84;37.71
59272;BME280;45043;51.068;7.026;2023-04-25T15:47:18;100374.41;;;8.61;37.21
59272;BME280;45043;51.068;7.026;2023-04-25T15:50:18;100353.09;;;8.69;36.87
59272;BME280;45043;51.068;7.026;2023-04-25T15:53:19;100356.47;;;8.63;36.90
59272;BME280;45043;51.068;7.026;2023-04-25T15:56:20;100348.66;;;8.55;36.41
59272;BME280;45043;51.068;7.026;2023-04-25T15:59:20;100349.91;;;8.59;36.21
59272;BME280;45043;51.068;7.026;2023-04-25T16:02:21;100366.38;;;8.91;35.77
59272;BME280;45043;51.068;7.026;2023-04-25T16:05:22;100371.59;;;8.84;35.66
59272;BME280;45043;51.068;7.026;2023-04-25T16:08:22;100366.44;;;8.61;36.02
59272;BME280;45043;51.068;7.026;2023-04-25T16:11:23;100356.53;;;8.34;36.69
59272;BME280;45043;51.068;7.026;2023-04-25T16:14:23;100378.13;;;8.22;36.71
59272;BME280;45043;51.068;7.026;2023-04-25T16:17:25;100370.28;;;8.14;36.89
59272;BME280;45043;51.068;7.026;2023-04-25T16:20:27;100377.88;;;7.88;36.75
59272;BME280;45043;51.068;7.026;2023-04-25T16:23:27;100372.19;;;7.61;36.56
59272;BME280;45043;51.068;7.026;2023-04-25T16:26:28;100379.53;;;7.51;36.70
59272;BME280;45043;51.068;7.026;2023-04-25T16:29:28;100390.72;;;7.76;36.87
59272;BME280;45043;51.068;7.026;2023-04-25T16:32:29;100385.91;;;7.94;36.73
59272;BME280;45043;51.068;7.026;2023-04-25T16:35:30;100357.38;;;8.70;36.31
59272;BME280;45043;51.068;7.026;2023-04-25T16:38:31;100366.13;;;10.61;33.40
59272;BME280;45043;51.068;7.026;2023-04-25T16:41:32;100361.63;;;12.40;30.89
59272;BME280;45043;51.068;7.026;2023-04-25T16:44:33;100355.25;;;13.68;28.86
59272;BME280;45043;51.068;7.026;2023-04-25T16:47:34;100352.53;;;14.85;27.98
59272;BME280;45043;51.068;7.026;2023-04-25T16:50:36;100345.34;;;15.51;26.67
59272;BME280;45043;51.068;7.026;2023-04-25T16:53:39;100363.09;;;15.45;25.84
59272;BME280;45043;51.068;7.026;2023-04-25T16:56:40;100376.88;;;14.10;25.92
59272;BME280;45043;51.068;7.026;2023-04-25T16:59:41;100376.56;;;12.93;27.02
59272;BME280;45043;51.068;7.026;2023-04-25T17:02:42;100371.59;;;11.60;28.26
59272;BME280;45043;51.068;7.026;2023-04-25T17:05:42;100367.50;;;11.11;28.49
59272;BME280;45043;51.068;7.026;2023-04-25T17:08:43;100367.94;;;10.54;29.55
59272;BME280;45043;51.068;7.026;2023-04-25T17:11:44;100355.69;;;10.59;30.94
59272;BME280;45043;51.068;7.026;2023-04-25T17:14:45;100366.28;;;11.93;29.88